Time;durP1;ratioP1;P1;durP2;ratioP2;P2;SDS_P1;SDS_P2;PMS_P1;PMS_P2;Temp;Humidity;BMP_temperature;BMP_pressure;BME280_temperature;BME280_humidity;BME280_pressure;Samples;Min_cycle;Max_cycle;Signal;HPM_P1;HPM_P2
2023/07/19 00:00:47;;;;;;;3.43;3.13;;;18.60;53.90;;;;;;5003233;28;20444;-80
2023/07/19 00:03:16;;;;;;;6.80;3.97;;;18.60;54.40;;;;;;5002887;28;20471;-76
2023/07/19 00:05:43;;;;;;;3.90;3.50;;;18.40;53.80;;;;;;5003321;28;20627;-80
2023/07/19 00:08:11;;;;;;;4.17;3.87;;;18.50;53.60;;;;;;5003154;28;20534;-77
2023/07/19 00:10:38;;;;;;;3.50;3.20;;;18.50;53.90;;;;;;5003501;28;20510;-79
2023/07/19 00:13:05;;;;;;;4.30;3.90;;;18.50;54.00;;;;;;5001805;28;20440;-79
2023/07/19 00:15:33;;;;;;;3.80;3.50;;;18.50;54.10;;;;;;5001969;28;20473;-79
2023/07/19 00:18:00;;;;;;;4.97;3.80;;;18.40;54.20;;;;;;5003288;28;20432;-80
2023/07/19 00:20:27;;;;;;;3.80;3.50;;;18.30;54.40;;;;;;5002546;28;20787;-80
2023/07/19 00:22:54;;;;;;;4.97;3.30;;;18.30;54.30;;;;;;5002733;28;20463;-79
2023/07/19 00:25:21;;;;;;;4.90;3.90;;;18.30;53.70;;;;;;5002911;28;20417;-79
2023/07/19 00:27:49;;;;;;;5.00;4.40;;;18.30;54.70;;;;;;5002803;28;20542;-79
2023/07/19 00:30:18;;;;;;;4.80;3.90;;;18.30;54.20;;;;;;5002458;28;20651;-78
2023/07/19 00:32:46;;;;;;;4.80;3.57;;;18.30;54.50;;;;;;5002694;28;20470;-79
2023/07/19 00:35:15;;;;;;;8.33;4.40;;;18.10;54.90;;;;;;5002380;28;20429;-79
2023/07/19 00:37:45;;;;;;;7.40;3.93;;;18.00;54.90;;;;;;5003599;28;20757;-82
2023/07/19 00:40:13;;;;;;;7.23;3.67;;;18.00;55.70;;;;;;5004771;28;20612;-80
2023/07/19 00:42:40;;;;;;;4.07;3.70;;;17.90;56.00;;;;;;4985597;28;20445;-80
2023/07/19 00:45:08;;;;;;;4.70;4.00;;;17.80;56.80;;;;;;5007993;28;20466;-80
2023/07/19 00:47:37;;;;;;;4.50;3.50;;;17.70;57.70;;;;;;5014334;28;20547;-80
2023/07/19 00:50:06;;;;;;;4.23;3.80;;;17.70;57.40;;;;;;5015079;28;20443;-80
2023/07/19 00:52:34;;;;;;;4.03;3.73;;;17.70;57.70;;;;;;5005804;28;20474;-78
2023/07/19 00:55:01;;;;;;;5.27;4.20;;;17.50;58.20;;;;;;5002620;28;20765;-79
2023/07/19 00:57:28;;;;;;;6.80;4.03;;;17.50;58.70;;;;;;5002269;28;20670;-79
2023/07/19 00:59:55;;;;;;;4.60;3.70;;;17.50;57.00;;;;;;5002359;28;20667;-78
2023/07/19 01:02:22;;;;;;;3.87;3.57;;;17.50;56.80;;;;;;4985290;28;20450;-79
2023/07/19 01:04:50;;;;;;;4.50;3.60;;;17.60;55.90;;;;;;5001970;28;20486;-80
2023/07/19 01:07:17;;;;;;;4.20;3.80;;;17.70;55.80;;;;;;5002071;28;20435;-79
2023/07/19 01:09:44;;;;;;;5.27;4.40;;;17.80;55.70;;;;;;4984484;28;20477;-79
2023/07/19 01:12:11;;;;;;;5.50;4.70;;;17.80;55.50;;;;;;5001797;28;20439;-80
2023/07/19 01:14:38;;;;;;;4.20;3.80;;;17.70;55.80;;;;;;5002142;28;20467;-80
2023/07/19 01:17:05;;;;;;;4.73;4.33;;;17.60;57.70;;;;;;5002061;28;20472;-79
2023/07/19 01:19:32;;;;;;;3.83;3.53;;;17.50;58.00;;;;;;5000846;28;20466;-79
2023/07/19 01:21:59;;;;;;;3.87;3.57;;;17.40;58.30;;;;;;5002167;28;20435;-79
2023/07/19 01:24:28;;;;;;;4.10;3.80;;;17.40;57.90;;;;;;5002276;28;20463;-80
2023/07/19 01:26:56;;;;;;;4.03;3.73;;;17.20;58.90;;;;;;5001125;28;20474;-80
2023/07/19 01:29:34;;;;;;;4.53;3.50;;;17.10;59.10;;;;;;5001788;28;20453;-80
2023/07/19 01:32:02;;;;;;;4.10;3.73;;;17.10;60.30;;;;;;5002156;28;20431;-79
2023/07/19 01:34:29;;;;;;;4.87;4.17;;;16.90;60.40;;;;;;5001807;28;20619;-79
2023/07/19 01:36:56;;;;;;;5.83;3.90;;;16.90;59.90;;;;;;5001800;28;20656;-80
2023/07/19 01:39:23;;;;;;;4.43;4.03;;;16.80;60.00;;;;;;5001550;28;20450;-79
2023/07/19 01:41:50;;;;;;;5.03;4.63;;;16.80;59.40;;;;;;4984175;28;20470;-79
2023/07/19 01:44:17;;;;;;;4.23;3.80;;;16.90;59.00;;;;;;5001559;28;20502;-79
2023/07/19 01:46:44;;;;;;;7.07;4.83;;;17.00;58.80;;;;;;5001200;28;20466;-80
2023/07/19 01:49:11;;;;;;;6.13;4.40;;;16.90;59.10;;;;;;5001031;28;20517;-80
2023/07/19 01:51:38;;;;;;;8.40;5.13;;;16.90;58.20;;;;;;5001168;28;20512;-80
2023/07/19 01:54:05;;;;;;;4.70;4.20;;;16.80;60.30;;;;;;5001811;28;20441;-79
2023/07/19 01:56:32;;;;;;;5.93;5.40;;;16.80;62.00;;;;;;5002075;28;20477;-78
2023/07/19 01:58:59;;;;;;;4.73;4.23;;;16.50;62.30;;;;;;5001303;28;20510;-80
2023/07/19 02:01:26;;;;;;;5.03;4.50;;;16.50;62.70;;;;;;5001500;28;20439;-81
2023/07/19 02:03:53;;;;;;;4.80;4.40;;;16.30;63.70;;;;;;5001005;28;20470;-80
2023/07/19 02:06:20;;;;;;;5.33;4.77;;;16.30;64.30;;;;;;5001082;28;20430;-79
2023/07/19 02:08:47;;;;;;;6.13;4.27;;;16.30;64.80;;;;;;5000268;28;20475;-80
2023/07/19 02:11:14;;;;;;;5.80;4.10;;;16.20;65.00;;;;;;5000919;28;20728;-78
2023/07/19 02:13:41;;;;;;;4.37;3.97;;;16.20;65.50;;;;;;5000798;28;20498;-79
2023/07/19 02:16:08;;;;;;;4.57;4.27;;;16.10;65.70;;;;;;5001851;28;20510;-79
2023/07/19 02:18:35;;;;;;;10.73;5.00;;;16.00;66.30;;;;;;4984105;28;20440;-80
2023/07/19 02:21:02;;;;;;;6.00;4.30;;;15.80;66.90;;;;;;5003715;28;20511;-80
2023/07/19 02:23:29;;;;;;;5.43;4.73;;;15.90;67.70;;;;;;5005621;28;20466;-80
2023/07/19 02:25:56;;;;;;;4.90;4.40;;;15.80;68.10;;;;;;5005637;28;20818;-79
2023/07/19 02:28:23;;;;;;;5.50;5.00;;;15.70;68.40;;;;;;5005368;28;20547;-79
2023/07/19 02:30:51;;;;;;;7.33;5.00;;;15.60;69.20;;;;;;5004232;28;20502;-80
2023/07/19 02:33:21;;;;;;;12.93;5.10;;;15.50;69.40;;;;;;5004780;28;20435;-79
2023/07/19 02:35:55;;;;;;;5.93;5.13;;;15.40;69.90;;;;;;5005339;28;20478;-80
2023/07/19 02:38:25;;;;;;;5.77;4.80;;;15.40;70.00;;;;;;5003499;28;20446;-79
2023/07/19 02:41:00;;;;;;;5.97;4.83;;;15.40;70.90;;;;;;5004690;28;20424;-79
2023/07/19 02:43:27;;;;;;;5.83;5.13;;;15.40;70.60;;;;;;5004917;28;20505;-79
2023/07/19 02:45:54;;;;;;;8.67;5.23;;;15.40;71.00;;;;;;5005471;28;20414;-79
2023/07/19 02:48:22;;;;;;;6.23;4.90;;;15.30;71.30;;;;;;5004418;28;20853;-80
2023/07/19 02:50:49;;;;;;;5.57;5.00;;;15.20;71.60;;;;;;5004565;28;20463;-79
2023/07/19 02:53:17;;;;;;;6.20;5.60;;;15.20;72.00;;;;;;5004633;28;20694;-78
2023/07/19 02:55:45;;;;;;;6.53;5.40;;;15.10;72.40;;;;;;4987256;28;20410;-80
2023/07/19 02:58:13;;;;;;;7.67;4.73;;;15.10;72.30;;;;;;5004457;28;20439;-79
2023/07/19 03:00:42;;;;;;;7.57;4.90;;;15.10;72.60;;;;;;5004088;28;20436;-80
2023/07/19 03:03:10;;;;;;;6.20;5.60;;;15.10;72.80;;;;;;5004386;28;20432;-79
2023/07/19 03:05:40;;;;;;;6.00;5.17;;;15.00;72.80;;;;;;5004352;28;20458;-79
2023/07/19 03:08:07;;;;;;;5.80;5.10;;;14.90;73.00;;;;;;5003817;28;20451;-79
2023/07/19 03:10:34;;;;;;;6.13;4.93;;;15.00;73.20;;;;;;5004298;28;20465;-79
2023/07/19 03:13:01;;;;;;;6.20;5.20;;;15.00;73.20;;;;;;5004296;28;20498;-78
2023/07/19 03:15:32;;;;;;;5.77;5.20;;;15.00;73.10;;;;;;4987395;28;20511;-80
2023/07/19 03:18:00;;;;;;;5.90;5.30;;;15.00;73.20;;;;;;5003981;28;20417;-79
2023/07/19 03:20:31;;;;;;;5.23;4.73;;;15.00;73.20;;;;;;5003990;28;20435;-79
2023/07/19 03:22:58;;;;;;;5.47;4.97;;;15.10;73.20;;;;;;5004418;28;20470;-79
2023/07/19 03:25:27;;;;;;;6.03;5.50;;;15.10;73.40;;;;;;4987206;28;20435;-79
2023/07/19 03:27:53;;;;;;;20.67;18.90;;;15.10;73.60;;;;;;5004192;28;20432;-80
2023/07/19 03:30:23;;;;;;;13.47;9.73;;;15.20;73.20;;;;;;5002707;28;20482;-79
2023/07/19 03:32:51;;;;;;;7.07;6.23;;;15.30;72.70;;;;;;5003801;28;20447;-79
2023/07/19 03:35:19;;;;;;;5.93;5.30;;;15.50;72.20;;;;;;5004175;28;20455;-81
2023/07/19 03:37:48;;;;;;;5.30;4.80;;;15.40;72.30;;;;;;5004021;28;20504;-79
2023/07/19 03:40:17;;;;;;;7.83;6.13;;;15.50;72.20;;;;;;5003535;28;20574;-79
2023/07/19 03:42:44;;;;;;;10.00;7.73;;;15.80;71.50;;;;;;5003040;28;20433;-79
2023/07/19 03:45:12;;;;;;;13.90;12.80;;;16.00;70.40;;;;;;5004370;28;20471;-79
2023/07/19 03:47:39;;;;;;;11.87;9.90;;;16.20;69.90;;;;;;5008026;28;20463;-80
2023/07/19 03:50:07;;;;;;;9.80;6.90;;;16.20;69.50;;;;;;5014578;28;20478;-80
2023/07/19 03:52:35;;;;;;;6.23;5.73;;;16.40;68.70;;;;;;4993866;28;20466;-79
2023/07/19 03:55:03;;;;;;;242.17;125.63;;;16.40;69.00;;;;;;5002326;28;20450;-80
2023/07/19 03:57:32;;;;;;;39.23;24.03;;;16.40;68.80;;;;;;5003563;28;20513;-79
2023/07/19 03:59:59;;;;;;;10.13;5.63;;;16.30;69.30;;;;;;5003617;28;20435;-79
2023/07/19 04:02:26;;;;;;;11.90;6.30;;;16.40;69.50;;;;;;5003277;28;20475;-78
2023/07/19 04:04:53;;;;;;;8.60;5.40;;;16.50;69.40;;;;;;5002151;28;20661;-78
2023/07/19 04:07:21;;;;;;;6.13;5.00;;;16.70;69.50;;;;;;5003184;28;20679;-80
2023/07/19 04:09:48;;;;;;;6.37;4.97;;;16.80;68.30;;;;;;4986065;28;20482;-79
2023/07/19 04:12:17;;;;;;;7.70;5.40;;;17.10;67.50;;;;;;5003699;28;20522;-81
2023/07/19 04:14:43;;;;;;;6.17;5.40;;;17.20;67.30;;;;;;5003163;28;20507;-80
2023/07/19 04:17:11;;;;;;;6.40;4.60;;;17.40;66.90;;;;;;5003030;28;20463;-80
2023/07/19 04:19:38;;;;;;;10.47;5.80;;;17.40;66.90;;;;;;5002978;28;20487;-79
2023/07/19 04:22:06;;;;;;;7.07;5.40;;;17.50;66.70;;;;;;5002803;28;20684;-80
2023/07/19 04:24:33;;;;;;;7.07;4.80;;;17.60;65.80;;;;;;5002432;28;20772;-80
2023/07/19 04:27:00;;;;;;;7.67;5.67;;;17.70;65.40;;;;;;5003004;28;20435;-79
2023/07/19 04:29:27;;;;;;;9.53;5.83;;;17.70;65.10;;;;;;5002617;28;20503;-79
2023/07/19 04:31:54;;;;;;;6.03;5.00;;;17.70;65.10;;;;;;5002299;28;20503;-78
2023/07/19 04:34:22;;;;;;;5.90;4.50;;;17.60;65.50;;;;;;5002689;28;20452;-78
2023/07/19 04:36:48;;;;;;;11.03;5.80;;;17.80;65.40;;;;;;5002520;28;20499;-79
2023/07/19 04:39:16;;;;;;;9.77;5.60;;;17.90;66.70;;;;;;5001245;28;20494;-79
2023/07/19 04:41:45;;;;;;;11.67;6.97;;;17.80;65.70;;;;;;5002798;28;20435;-79
2023/07/19 04:44:12;;;;;;;8.60;6.40;;;17.80;65.90;;;;;;5002068;28;20467;-79
2023/07/19 04:46:39;;;;;;;12.70;6.50;;;17.70;66.40;;;;;;5002470;28;20787;-81
2023/07/19 04:49:06;;;;;;;8.43;5.70;;;17.70;66.10;;;;;;5002089;28;20471;-79
2023/07/19 04:51:33;;;;;;;8.40;5.90;;;17.90;65.80;;;;;;5002174;28;20486;-79
2023/07/19 04:54:00;;;;;;;6.80;5.33;;;17.90;65.20;;;;;;5002923;28;20431;-80
2023/07/19 04:56:27;;;;;;;11.23;6.23;;;18.00;64.80;;;;;;5002323;28;20446;-79
2023/07/19 04:58:54;;;;;;;6.60;5.33;;;18.30;63.80;;;;;;5002269;28;20453;-79
2023/07/19 05:01:21;;;;;;;11.00;6.80;;;18.40;63.10;;;;;;5002617;28;20436;-79
2023/07/19 05:03:49;;;;;;;8.00;5.67;;;18.70;63.40;;;;;;5002867;28;20439;-77
2023/07/19 05:06:16;;;;;;;14.33;7.60;;;19.00;61.90;;;;;;5001300;28;20485;-79
2023/07/19 05:08:44;;;;;;;13.50;7.40;;;19.20;61.30;;;;;;5002349;28;20657;-77
2023/07/19 05:11:10;;;;;;;8.57;5.97;;;19.20;60.40;;;;;;5002538;28;20406;-78
2023/07/19 05:13:38;;;;;;;8.20;6.03;;;19.40;60.80;;;;;;5002423;28;20495;-79
2023/07/19 05:16:05;;;;;;;7.47;6.70;;;19.50;60.10;;;;;;5002667;28;20564;-78
2023/07/19 05:18:33;;;;;;;8.10;5.23;;;19.60;60.40;;;;;;5001033;28;20450;-78
2023/07/19 05:21:00;;;;;;;13.93;6.10;;;19.60;59.60;;;;;;5001783;28;20448;-79
2023/07/19 05:23:27;;;;;;;7.83;5.67;;;19.90;59.10;;;;;;5001844;28;20581;-79
2023/07/19 05:25:55;;;;;;;10.33;6.07;;;20.00;58.70;;;;;;5002029;28;20481;-78
2023/07/19 05:28:22;;;;;;;8.70;5.90;;;20.00;58.50;;;;;;5001540;28;20458;-78
2023/07/19 05:30:49;;;;;;;6.57;5.87;;;20.20;58.30;;;;;;5001658;28;20484;-78
2023/07/19 05:33:16;;;;;;;14.10;5.73;;;20.60;56.90;;;;;;5001894;28;20442;-78
2023/07/19 05:35:47;;;;;;;8.70;6.43;;;20.90;56.10;;;;;;5002463;28;20446;-78
2023/07/19 05:38:13;;;;;;;10.30;5.73;;;21.20;55.20;;;;;;5002426;28;20425;-78
2023/07/19 05:40:41;;;;;;;9.80;6.23;;;21.30;55.00;;;;;;5002239;28;20797;-79
2023/07/19 05:43:08;;;;;;;12.63;6.90;;;21.30;54.80;;;;;;5001865;28;20481;-78
2023/07/19 05:45:35;;;;;;;6.53;5.90;;;21.30;54.80;;;;;;5001997;28;20678;-78
2023/07/19 05:48:03;;;;;;;12.07;5.70;;;21.40;54.00;;;;;;5002271;28;20697;-78
2023/07/19 05:50:30;;;;;;;7.93;6.30;;;21.40;53.80;;;;;;5003163;28;20522;-77
2023/07/19 05:52:57;;;;;;;7.27;5.80;;;21.50;53.40;;;;;;5001657;28;20442;-78
2023/07/19 05:55:24;;;;;;;10.27;5.90;;;21.40;53.60;;;;;;5000687;28;20734;-78
2023/07/19 05:57:51;;;;;;;10.70;5.53;;;21.50;53.50;;;;;;5002387;28;20410;-77
2023/07/19 06:00:24;;;;;;;14.40;5.80;;;21.80;52.70;;;;;;5002039;28;20471;-77
2023/07/19 06:02:52;;;;;;;12.50;5.70;;;21.90;52.30;;;;;;5002358;28;20439;-77
2023/07/19 06:05:25;;;;;;;11.43;5.27;;;21.90;52.20;;;;;;5001198;28;20412;-77
2023/07/19 06:07:52;;;;;;;9.50;4.63;;;22.10;51.50;;;;;;5003532;28;20413;-76
2023/07/19 06:10:20;;;;;;;8.53;5.47;;;22.10;51.70;;;;;;5003386;28;20479;-78
2023/07/19 06:12:47;;;;;;;7.33;5.13;;;22.50;51.60;;;;;;5001357;28;20435;-78
2023/07/19 06:15:14;;;;;;;6.30;4.33;;;22.70;50.60;;;;;;5002756;28;20720;-76
2023/07/19 06:17:42;;;;;;;6.03;4.90;;;22.50;51.10;;;;;;5002440;28;20416;-79
2023/07/19 06:20:10;;;;;;;7.13;4.67;;;22.30;51.20;;;;;;5002443;28;20446;-79
2023/07/19 06:22:37;;;;;;;7.97;5.13;;;22.60;50.10;;;;;;5002883;28;20474;-77
2023/07/19 06:25:05;;;;;;;10.33;6.23;;;23.00;49.80;;;;;;5002829;28;20497;-77
2023/07/19 06:27:32;;;;;;;7.33;5.00;;;23.10;48.70;;;;;;5003246;28;20441;-79
2023/07/19 06:30:00;;;;;;;7.83;5.10;;;22.90;48.80;;;;;;5002035;28;20578;-77
2023/07/19 06:32:27;;;;;;;5.77;5.03;;;23.00;49.00;;;;;;5000516;28;20505;-76
2023/07/19 06:34:55;;;;;;;6.00;4.30;;;23.20;49.40;;;;;;5000364;28;20461;-78
2023/07/19 06:37:21;;;;;;;11.37;4.97;;;23.60;48.80;;;;;;5002300;28;20413;-77
2023/07/19 06:39:51;;;;;;;8.63;4.80;;;23.90;48.10;;;;;;5001614;28;20685;-76
2023/07/19 06:42:18;;;;;;;11.23;5.17;;;24.30;47.30;;;;;;5001559;28;20410;-77
2023/07/19 06:44:45;;;;;;;11.43;6.30;;;24.50;46.60;;;;;;5001048;28;20518;-77
2023/07/19 06:47:13;;;;;;;6.50;4.70;;;24.60;45.90;;;;;;5001109;28;20711;-77
2023/07/19 06:49:40;;;;;;;10.70;4.93;;;25.00;44.60;;;;;;5001563;28;20483;-76
2023/07/19 06:52:08;;;;;;;6.20;4.40;;;25.10;44.80;;;;;;5011517;28;20463;-78
2023/07/19 06:54:36;;;;;;;5.33;4.10;;;25.80;44.30;;;;;;4997317;28;20458;-78
2023/07/19 06:57:03;;;;;;;6.37;4.97;;;26.00;42.30;;;;;;5003374;28;20551;-77
2023/07/19 06:59:30;;;;;;;6.73;4.90;;;26.30;42.20;;;;;;5000786;28;20439;-77
2023/07/19 07:01:57;;;;;;;7.97;5.37;;;26.10;41.60;;;;;;5000340;28;20473;-77
2023/07/19 07:04:24;;;;;;;4.90;4.40;;;26.40;40.30;;;;;;4999928;28;20459;-76
2023/07/19 07:06:51;;;;;;;5.10;3.93;;;26.60;41.10;;;;;;5003602;28;20494;-77
2023/07/19 07:09:18;;;;;;;9.30;4.37;;;26.60;41.10;;;;;;5004406;28;20435;-77
2023/07/19 07:11:45;;;;;;;8.43;4.83;;;26.70;41.10;;;;;;5004666;28;20489;-78
2023/07/19 07:14:13;;;;;;;5.00;4.50;;;26.80;40.50;;;;;;5002980;28;20470;-77
2023/07/19 07:16:41;;;;;;;7.40;4.47;;;26.90;40.10;;;;;;5004549;28;20822;-77
2023/07/19 07:19:08;;;;;;;6.87;4.73;;;27.00;40.90;;;;;;5008381;28;20457;-77
2023/07/19 07:21:35;;;;;;;9.60;5.00;;;27.70;39.10;;;;;;5005630;28;20435;-78
2023/07/19 07:24:02;;;;;;;12.17;4.83;;;27.70;37.60;;;;;;5005780;28;20435;-77
2023/07/19 07:26:29;;;;;;;5.80;4.27;;;28.00;37.60;;;;;;5006552;28;20502;-78
2023/07/19 07:28:57;;;;;;;4.93;4.47;;;29.00;37.20;;;;;;4988048;28;20467;-78
2023/07/19 07:31:24;;;;;;;6.40;4.30;;;29.60;35.70;;;;;;5005665;28;20648;-78
2023/07/19 07:33:51;;;;;;;7.13;4.67;;;30.00;34.20;;;;;;5005739;28;20503;-77
2023/07/19 07:36:19;;;;;;;4.10;3.50;;;30.20;33.10;;;;;;5003934;28;20442;-77
2023/07/19 07:38:48;;;;;;;6.93;4.53;;;31.30;30.20;;;;;;5004102;28;20463;-76
2023/07/19 07:41:16;;;;;;;4.47;4.03;;;32.00;30.00;;;;;;5003945;28;20794;-76
2023/07/19 07:43:43;;;;;;;5.80;4.80;;;31.80;30.20;;;;;;5003438;28;20490;-78
2023/07/19 07:46:10;;;;;;;3.83;3.53;;;32.40;30.10;;;;;;5004122;28;20440;-76
2023/07/19 07:48:37;;;;;;;7.53;4.47;;;33.00;29.30;;;;;;5003818;28;20436;-77
2023/07/19 07:51:05;;;;;;;4.00;3.70;;;33.20;28.80;;;;;;5003753;28;20756;-77
2023/07/19 07:53:32;;;;;;;5.03;4.37;;;33.20;28.80;;;;;;5004274;28;20558;-77
2023/07/19 07:55:59;;;;;;;5.00;4.20;;;33.30;28.30;;;;;;5003516;28;20616;-77
2023/07/19 07:58:26;;;;;;;4.30;3.87;;;32.90;28.10;;;;;;5003983;28;20447;-77
2023/07/19 08:00:54;;;;;;;5.17;3.90;;;33.40;28.60;;;;;;5003823;28;20514;-77
2023/07/19 08:03:21;;;;;;;4.70;4.30;;;35.30;26.00;;;;;;5003369;28;20625;-77
2023/07/19 08:05:48;;;;;;;4.50;4.10;;;33.90;27.60;;;;;;5003648;28;20487;-78
2023/07/19 08:08:15;;;;;;;4.33;4.03;;;34.30;27.90;;;;;;5002984;28;20471;-77
2023/07/19 08:10:43;;;;;;;6.50;4.07;;;34.80;26.60;;;;;;5003381;28;20554;-78
2023/07/19 08:13:11;;;;;;;4.80;4.40;;;34.60;27.50;;;;;;5003391;28;20463;-77
2023/07/19 08:15:38;;;;;;;4.57;4.00;;;34.80;27.00;;;;;;5002255;28;20466;-78
2023/07/19 08:18:05;;;;;;;8.00;4.30;;;35.30;26.90;;;;;;5002251;28;20512;-78
2023/07/19 08:20:32;;;;;;;5.10;4.60;;;36.00;25.70;;;;;;5006180;28;20523;-77
2023/07/19 08:23:00;;;;;;;5.87;4.60;;;35.70;25.90;;;;;;5003259;28;20907;-78
2023/07/19 08:25:29;;;;;;;4.17;3.77;;;35.40;25.00;;;;;;5002302;28;20443;-77
2023/07/19 08:27:56;;;;;;;5.83;5.23;;;35.70;24.60;;;;;;5002700;28;20431;-78
2023/07/19 08:30:23;;;;;;;4.07;3.37;;;35.60;26.00;;;;;;5002597;28;20538;-77
2023/07/19 08:32:51;;;;;;;7.97;4.80;;;35.20;25.50;;;;;;5002752;28;20478;-77
2023/07/19 08:35:19;;;;;;;4.77;3.67;;;35.20;26.30;;;;;;5002899;28;20444;-77
2023/07/19 08:37:46;;;;;;;4.60;3.90;;;35.50;26.00;;;;;;4985270;28;20474;-79
2023/07/19 08:40:15;;;;;;;5.30;4.57;;;35.40;26.10;;;;;;5002891;28;20447;-77
2023/07/19 08:42:43;;;;;;;4.70;3.93;;;35.90;24.80;;;;;;5002535;28;20562;-77
2023/07/19 08:45:11;;;;;;;4.20;3.70;;;36.10;24.20;;;;;;5003003;28;20506;-77
2023/07/19 08:47:40;;;;;;;4.40;3.50;;;35.80;25.20;;;;;;5003199;28;20467;-78
2023/07/19 08:50:11;;;;;;;5.20;4.80;;;35.60;25.30;;;;;;5003561;28;20474;-78
2023/07/19 08:52:39;;;;;;;4.53;4.17;;;35.60;25.10;;;;;;5002470;28;20503;-76
2023/07/19 08:55:07;;;;;;;4.87;4.27;;;34.80;26.00;;;;;;5003169;28;20458;-78
2023/07/19 08:57:40;;;;;;;4.67;4.13;;;35.10;25.40;;;;;;5003756;28;20464;-78
2023/07/19 09:00:08;;;;;;;4.97;4.20;;;35.50;25.40;;;;;;5003930;28;20452;-77
2023/07/19 09:02:35;;;;;;;4.33;4.03;;;35.80;25.00;;;;;;5002201;28;20780;-78
2023/07/19 09:05:10;;;;;;;4.40;4.10;;;35.10;25.80;;;;;;5003377;28;20437;-78
2023/07/19 09:07:41;;;;;;;4.70;4.30;;;34.60;26.50;;;;;;5001958;28;20463;-77
2023/07/19 09:10:09;;;;;;;4.37;3.97;;;34.50;26.30;;;;;;5002001;28;20850;-78
2023/07/19 09:12:39;;;;;;;5.93;4.60;;;35.30;26.10;;;;;;5002791;28;20474;-78
2023/07/19 09:15:08;;;;;;;6.80;4.70;;;35.20;25.90;;;;;;5002402;28;20450;-78
2023/07/19 09:17:37;;;;;;;5.57;5.00;;;35.80;25.30;;;;;;4985149;28;20436;-77
2023/07/19 09:20:04;;;;;;;4.93;4.43;;;35.50;26.10;;;;;;5002616;28;20467;-76
2023/07/19 09:22:34;;;;;;;5.67;5.17;;;35.30;25.50;;;;;;5001898;28;20550;-78
2023/07/19 09:25:03;;;;;;;4.80;4.30;;;36.10;25.60;;;;;;5002501;28;20546;-79
2023/07/19 09:27:32;;;;;;;5.10;4.60;;;36.10;24.60;;;;;;5002692;28;20463;-78
2023/07/19 09:30:00;;;;;;;4.23;3.93;;;36.20;24.50;;;;;;4985866;28;20450;-78
2023/07/19 09:32:27;;;;;;;11.53;5.10;;;35.20;25.60;;;;;;5002834;28;20444;-79
2023/07/19 09:34:55;;;;;;;4.40;3.63;;;35.20;25.90;;;;;;5002551;28;20447;-77
2023/07/19 09:37:24;;;;;;;5.70;4.20;;;34.40;27.00;;;;;;5000797;28;20511;-77
2023/07/19 09:39:54;;;;;;;4.93;3.63;;;34.10;26.60;;;;;;5001838;28;20529;-78
2023/07/19 09:42:24;;;;;;;6.50;4.60;;;33.90;27.20;;;;;;5002342;28;20652;-77
2023/07/19 09:44:53;;;;;;;7.43;5.43;;;33.80;27.30;;;;;;5001690;28;20530;-77
2023/07/19 09:47:22;;;;;;;5.07;4.20;;;33.10;27.60;;;;;;5002397;28;20506;-78
2023/07/19 09:49:57;;;;;;;4.83;3.57;;;33.00;27.80;;;;;;5002106;28;20450;-79
2023/07/19 09:52:25;;;;;;;6.60;5.03;;;33.00;28.30;;;;;;5011508;28;20458;-77
2023/07/19 09:54:53;;;;;;;4.00;3.60;;;32.90;27.70;;;;;;5015012;28;20470;-77
2023/07/19 09:57:25;;;;;;;4.13;3.73;;;32.50;27.90;;;;;;5003596;28;20435;-76
2023/07/19 09:59:53;;;;;;;5.60;4.77;;;31.70;29.40;;;;;;5000643;28;20420;-77
2023/07/19 10:02:24;;;;;;;4.30;3.90;;;31.60;29.90;;;;;;5001865;28;20511;-75
2023/07/19 10:04:51;;;;;;;5.30;3.80;;;32.00;30.20;;;;;;5001798;28;20510;-76
2023/07/19 10:07:26;;;;;;;4.50;4.10;;;31.80;29.50;;;;;;5002500;28;20756;-77
2023/07/19 10:10:17;;;;;;;4.40;3.70;;;31.80;29.60;;;;;;4988029;28;20673;-77
2023/07/19 10:12:48;;;;;;;6.30;3.87;;;31.30;30.40;;;;;;5001778;28;20620;-76
2023/07/19 10:15:16;;;;;;;4.30;3.90;;;30.90;31.20;;;;;;5001703;28;20436;-76
2023/07/19 10:17:50;;;;;;;6.07;3.87;;;30.60;30.00;;;;;;5002258;28;20423;-78
2023/07/19 10:20:24;;;;;;;4.50;3.80;;;30.20;30.80;;;;;;5001287;28;20463;-78
2023/07/19 10:22:57;;;;;;;6.93;4.80;;;29.80;32.30;;;;;;5000158;28;20473;-78
2023/07/19 10:25:24;;;;;;;4.20;3.90;;;29.70;32.80;;;;;;5001567;28;20628;-80
2023/07/19 10:28:06;;;;;;;4.47;4.07;;;30.30;31.80;;;;;;5001237;28;20503;-78
2023/07/19 10:30:45;;;;;;;4.47;3.90;;;30.10;31.80;;;;;;5001941;28;20461;-78
2023/07/19 10:33:14;;;;;;;5.27;4.47;;;30.40;31.70;;;;;;5000742;28;20786;-76
2023/07/19 10:35:43;;;;;;;7.07;4.63;;;29.50;32.40;;;;;;4999686;28;20447;-82
2023/07/19 10:38:24;;;;;;;4.50;4.03;;;29.50;32.80;;;;;;5001273;28;20668;-77
2023/07/19 10:41:02;;;;;;;3.80;3.50;;;29.60;33.80;;;;;;5002392;28;20423;-79
2023/07/19 10:43:31;;;;;;;3.83;3.53;;;30.00;33.20;;;;;;4988144;28;20393;-79
2023/07/19 10:46:14;;;;;;;4.90;3.67;;;30.30;31.70;;;;;;5005361;28;20416;-76
2023/07/19 10:48:41;;;;;;;4.13;3.80;;;30.20;31.90;;;;;;5005842;28;20507;-76
2023/07/19 10:51:09;;;;;;;4.60;4.20;;;30.40;30.70;;;;;;5004394;28;20886;-81
2023/07/19 10:53:43;;;;;;;5.20;4.07;;;30.40;31.70;;;;;;5005843;28;20598;-78
2023/07/19 10:56:13;;;;;;;4.27;3.40;;;30.30;31.40;;;;;;5006095;28;20433;-80
2023/07/19 10:58:42;;;;;;;4.07;3.70;;;30.30;31.80;;;;;;5006790;28;20506;-80
2023/07/19 11:01:10;;;;;;;4.53;3.33;;;29.80;32.10;;;;;;5005134;28;20655;-77
2023/07/19 11:03:39;;;;;;;5.60;4.10;;;29.60;32.90;;;;;;5002933;28;20446;-80
2023/07/19 11:06:09;;;;;;;4.87;4.27;;;29.90;32.50;;;;;;5003707;28;20435;-77
2023/07/19 11:08:36;;;;;;;4.60;4.17;;;30.30;32.10;;;;;;5004692;28;20467;-77
2023/07/19 11:11:03;;;;;;;8.30;4.13;;;30.90;31.00;;;;;;5004957;28;20800;-77
2023/07/19 11:13:30;;;;;;;4.50;3.70;;;31.20;30.00;;;;;;5003639;28;20438;-76
2023/07/19 11:15:58;;;;;;;9.13;3.90;;;31.10;29.80;;;;;;5004881;28;20569;-77
2023/07/19 11:18:48;;;;;;;5.37;3.93;;;31.30;30.00;;;;;;5003861;28;20454;-77
2023/07/19 11:21:26;;;;;;;4.77;4.37;;;31.50;29.90;;;;;;4986958;28;20450;-78
2023/07/19 11:23:54;;;;;;;6.43;3.40;;;31.60;29.60;;;;;;4987158;28;20498;-77
2023/07/19 11:26:21;;;;;;;5.57;3.80;;;31.70;29.60;;;;;;4988161;28;20440;-78
2023/07/19 11:28:56;;;;;;;7.43;4.30;;;31.80;29.50;;;;;;5004007;28;20491;-76
2023/07/19 11:31:31;;;;;;;4.83;4.33;;;31.70;29.10;;;;;;5005092;28;20538;-77
2023/07/19 11:34:10;;;;;;;6.70;3.87;;;31.60;29.20;;;;;;5004163;28;20450;-76
2023/07/19 11:36:42;;;;;;;4.83;4.10;;;31.50;29.10;;;;;;4986561;28;20664;-80
2023/07/19 11:39:18;;;;;;;4.70;4.00;;;31.50;29.80;;;;;;5003576;28;20443;-78
2023/07/19 11:41:46;;;;;;;4.27;3.87;;;31.20;29.30;;;;;;4986657;28;20454;-76
2023/07/19 11:44:14;;;;;;;4.53;3.60;;;30.90;29.80;;;;;;5003399;28;20791;-76
2023/07/19 11:46:41;;;;;;;6.03;3.87;;;30.70;29.90;;;;;;5004618;28;20467;-76
2023/07/19 11:49:10;;;;;;;5.00;4.50;;;30.50;30.20;;;;;;5004373;28;20435;-77
2023/07/19 11:51:38;;;;;;;7.37;3.63;;;30.80;29.70;;;;;;5002996;28;20543;-76
2023/07/19 11:54:05;;;;;;;4.70;4.13;;;30.80;29.60;;;;;;4986236;28;20443;-80
2023/07/19 11:56:33;;;;;;;4.87;3.53;;;30.80;30.00;;;;;;5003506;28;20446;-80
2023/07/19 11:59:01;;;;;;;6.20;3.73;;;31.00;29.90;;;;;;5003761;28;20451;-77
2023/07/19 12:01:28;;;;;;;3.80;3.50;;;30.90;30.00;;;;;;5004358;28;20498;-76
2023/07/19 12:03:59;;;;;;;4.20;3.80;;;30.60;28.90;;;;;;5004078;28;20439;-77
2023/07/19 12:06:29;;;;;;;4.73;4.20;;;30.90;28.50;;;;;;5003128;28;20443;-76
2023/07/19 12:08:56;;;;;;;9.77;3.83;;;31.00;29.30;;;;;;5003826;28;20685;-80
2023/07/19 12:11:23;;;;;;;4.30;3.90;;;31.20;29.10;;;;;;5003000;28;20467;-76
2023/07/19 12:13:51;;;;;;;5.13;3.50;;;30.90;28.70;;;;;;5003905;28;20492;-75
2023/07/19 12:16:18;;;;;;;4.33;4.00;;;30.90;29.50;;;;;;5004422;28;20494;-77
2023/07/19 12:18:46;;;;;;;5.10;3.73;;;31.30;29.70;;;;;;5003230;28;20510;-76
2023/07/19 12:21:13;;;;;;;4.73;4.10;;;31.70;29.10;;;;;;5003151;28;20413;-78
2023/07/19 12:23:40;;;;;;;8.60;4.13;;;31.50;28.60;;;;;;5003175;28;20664;-77
2023/07/19 12:26:08;;;;;;;7.13;3.87;;;31.60;29.00;;;;;;4986381;28;20490;-78
2023/07/19 12:28:36;;;;;;;4.30;3.90;;;31.70;29.00;;;;;;5002992;28;20792;-81
2023/07/19 12:31:03;;;;;;;4.70;3.60;;;31.40;28.50;;;;;;5001757;28;20507;-76
2023/07/19 12:33:30;;;;;;;6.57;3.50;;;31.60;28.40;;;;;;5002988;28;20436;-77
2023/07/19 12:35:58;;;;;;;5.93;4.20;;;31.40;28.40;;;;;;5003262;28;20475;-78
2023/07/19 12:38:24;;;;;;;4.53;3.37;;;31.10;28.20;;;;;;5002061;28;20442;-76
2023/07/19 12:40:51;;;;;;;4.80;3.67;;;31.10;28.60;;;;;;5003586;28;20474;-77
2023/07/19 12:43:19;;;;;;;4.93;3.53;;;31.00;28.40;;;;;;5002821;28;20616;-79
2023/07/19 12:45:46;;;;;;;7.40;3.60;;;31.00;28.50;;;;;;5003267;28;20680;-79
2023/07/19 12:48:13;;;;;;;4.20;3.70;;;30.90;27.80;;;;;;5005610;28;20435;-77
2023/07/19 12:50:40;;;;;;;6.53;4.20;;;30.80;28.50;;;;;;5013728;28;20460;-78